Time;durP1;ratioP1;P1;durP2;ratioP2;P2;SDS_P1;SDS_P2;PMS_P1;PMS_P2;Temp;Humidity;BMP_temperature;BMP_pressure;BME280_temperature;BME280_humidity;BME280_pressure;Samples;Min_cycle;Max_cycle;Signal;HPM_P1;HPM_P2
2022/09/14 00:00:14;;;;;;;4.38;3.67;;;;;;;12.08;60.33;94755.81;5113343;28;20027;-72
2022/09/14 00:02:40;;;;;;;4.10;3.17;;;;;;;12.25;60.25;94764.72;5131707;27;20055;-72
2022/09/14 00:05:06;;;;;;;3.40;3.10;;;;;;;12.12;60.23;94758.94;5113657;28;20508;-72
2022/09/14 00:07:31;;;;;;;3.95;3.55;;;;;;;12.26;59.86;94761.16;5130462;28;20087;-72
2022/09/14 00:09:57;;;;;;;6.15;3.28;;;;;;;12.39;59.56;94755.66;5113203;28;20027;-72
2022/09/14 00:12:23;;;;;;;3.50;3.20;;;;;;;12.35;59.57;94752.50;5130248;28;20031;-72
2022/09/14 00:14:49;;;;;;;3.40;3.10;;;;;;;12.45;60.37;94755.09;5132053;27;20027;-72
2022/09/14 00:17:14;;;;;;;4.20;3.08;;;;;;;12.32;59.79;94762.38;5112974;28;20054;-73
2022/09/14 00:19:40;;;;;;;3.85;3.13;;;;;;;12.48;59.85;94760.84;5113387;28;20035;-72
2022/09/14 00:22:05;;;;;;;3.63;2.95;;;;;;;12.38;60.22;94762.66;5113170;28;20477;-72
2022/09/14 00:24:31;;;;;;;3.58;3.22;;;;;;;12.39;60.63;94761.66;5130475;28;20062;-72
2022/09/14 00:26:56;;;;;;;4.15;3.00;;;;;;;12.45;60.39;94765.50;5130523;27;20400;-72
2022/09/14 00:29:22;;;;;;;4.15;3.20;;;;;;;12.36;60.34;94767.16;5134403;27;20084;-72
2022/09/14 00:31:48;;;;;;;3.70;2.85;;;;;;;12.30;60.41;94762.50;5134135;27;20023;-72
2022/09/14 00:34:14;;;;;;;3.47;2.90;;;;;;;12.20;59.88;94748.66;5134321;27;20035;-73
2022/09/14 00:36:42;;;;;;;3.80;3.20;;;;;;;12.09;60.83;94757.47;5100140;27;20023;-72
2022/09/14 00:39:07;;;;;;;3.80;3.00;;;;;;;12.04;60.80;94744.84;5117027;27;20168;-72
2022/09/14 00:41:35;;;;;;;4.18;2.97;;;;;;;12.03;60.94;94758.00;5099949;27;20739;-72
2022/09/14 00:44:02;;;;;;;3.63;3.28;;;;;;;12.01;60.79;94763.34;5134162;27;20529;-72
2022/09/14 00:46:31;;;;;;;3.33;2.90;;;;;;;11.98;60.70;94755.81;5135173;27;20485;-72
2022/09/14 00:48:58;;;;;;;3.50;2.85;;;;;;;12.06;60.85;94766.38;5135442;27;20035;-72
2022/09/14 00:51:24;;;;;;;3.33;3.03;;;;;;;12.11;60.60;94760.75;5135005;27;20023;-72
2022/09/14 00:53:50;;;;;;;3.45;3.15;;;;;;;12.20;60.35;94767.75;5134034;27;20164;-73
2022/09/14 00:56:15;;;;;;;3.92;3.47;;;;;;;11.98;60.77;94763.63;5133771;27;20042;-72
2022/09/14 00:58:42;;;;;;;3.70;3.05;;;;;;;12.02;61.13;94761.56;5116647;27;20034;-72
2022/09/14 01:01:08;;;;;;;4.43;3.40;;;;;;;12.03;61.14;94761.41;5099641;27;20038;-72
2022/09/14 01:03:34;;;;;;;4.60;3.03;;;;;;;12.19;60.98;94773.06;5116708;27;20110;-73
2022/09/14 01:06:15;;;;;;;4.07;3.58;;;;;;;12.11;61.50;94773.75;5133665;27;20083;-73
2022/09/14 01:08:57;;;;;;;4.55;3.40;;;;;;;12.09;61.65;94770.50;5116446;27;20039;-72
2022/09/14 01:11:37;;;;;;;3.83;3.20;;;;;;;12.01;61.99;94776.38;5133316;27;20457;-72
2022/09/14 01:14:03;;;;;;;3.53;3.13;;;;;;;12.01;62.26;94771.16;5134738;27;20070;-72
2022/09/14 01:16:33;;;;;;;3.72;3.25;;;;;;;12.10;61.87;94776.50;5134388;27;20458;-73
2022/09/14 01:19:00;;;;;;;3.72;3.42;;;;;;;11.96;62.26;94775.97;5133569;27;20035;-72
2022/09/14 01:21:34;;;;;;;4.25;3.50;;;;;;;11.92;62.41;94769.38;5099276;27;20038;-72
2022/09/14 01:24:34;;;;;;;3.63;3.33;;;;;;;11.98;62.17;94779.25;5116459;27;20031;-72
2022/09/14 01:27:00;;;;;;;3.50;3.15;;;;;;;11.91;61.95;94778.13;5134421;27;20106;-72
2022/09/14 01:29:45;;;;;;;4.68;3.30;;;;;;;11.90;62.32;94771.31;5134375;27;20099;-72
2022/09/14 01:32:27;;;;;;;5.47;3.70;;;;;;;11.89;62.52;94769.63;5118234;27;20511;-73
2022/09/14 01:35:01;;;;;;;4.28;3.80;;;;;;;11.74;63.13;94774.41;5134879;27;20027;-73
2022/09/14 01:37:37;;;;;;;4.32;3.50;;;;;;;11.66;63.33;94776.84;5134206;27;20034;-73
2022/09/14 01:40:27;;;;;;;4.95;3.60;;;;;;;11.73;63.23;94775.38;5133234;27;20031;-73
2022/09/14 01:42:56;;;;;;;3.90;3.50;;;;;;;11.74;62.93;94765.78;5125189;27;20039;-73
2022/09/14 01:45:22;;;;;;;4.90;3.40;;;;;;;11.72;63.03;94767.69;5116369;27;20020;-73
2022/09/14 01:47:53;;;;;;;4.00;3.15;;;;;;;11.73;62.87;94764.94;5115685;27;20027;-73
2022/09/14 01:50:47;;;;;;;3.88;3.47;;;;;;;11.82;62.77;94771.13;5116241;27;20046;-73
2022/09/14 01:53:16;;;;;;;3.47;3.17;;;;;;;11.80;62.57;94765.22;5118080;27;20058;-73
2022/09/14 01:55:45;;;;;;;4.15;3.00;;;;;;;11.79;62.96;94771.41;5132704;27;20111;-73
2022/09/14 01:58:17;;;;;;;4.43;3.50;;;;;;;11.76;62.67;94764.69;5098532;27;20028;-73
2022/09/14 02:00:44;;;;;;;5.55;3.60;;;;;;;11.77;62.69;94771.53;5115719;27;20031;-73
2022/09/14 02:03:27;;;;;;;3.70;3.28;;;;;;;11.90;62.43;94778.28;5098220;27;20485;-73
2022/09/14 02:05:56;;;;;;;3.90;3.50;;;;;;;11.81;62.60;94774.66;5132701;27;20138;-73
2022/09/14 02:08:22;;;;;;;4.50;3.72;;;;;;;11.60;63.28;94775.59;5132309;27;20039;-73
2022/09/14 02:10:47;;;;;;;4.00;3.60;;;;;;;11.61;63.12;94772.03;5132327;27;20484;-73
2022/09/14 02:13:13;;;;;;;3.97;3.35;;;;;;;11.56;63.29;94771.63;5132151;27;20035;-73
2022/09/14 02:15:38;;;;;;;3.80;3.35;;;;;;;11.56;63.33;94769.03;5098221;27;20030;-73
2022/09/14 02:18:04;;;;;;;3.83;3.33;;;;;;;11.49;63.50;94767.09;5133306;27;20604;-73
2022/09/14 02:20:45;;;;;;;4.38;3.72;;;;;;;11.52;63.43;94765.03;5114771;27;20030;-73
2022/09/14 02:23:11;;;;;;;10.55;5.13;;;;;;;11.53;63.64;94769.31;5098640;27;20027;-73
2022/09/14 02:25:39;;;;;;;3.78;3.40;;;;;;;11.57;63.43;94775.88;5114907;27;20029;-73
2022/09/14 02:28:05;;;;;;;3.95;3.50;;;;;;;11.67;63.47;94772.47;5115228;27;20058;-73
2022/09/14 02:30:36;;;;;;;6.80;3.17;;;;;;;11.65;63.30;94767.41;5114804;27;20031;-73
2022/09/14 02:33:08;;;;;;;4.38;3.97;;;;;;;11.58;63.38;94764.50;5131831;27;20026;-73
2022/09/14 02:35:52;;;;;;;4.38;3.42;;;;;;;11.57;63.38;94759.44;5115243;27;20031;-73
2022/09/14 02:38:29;;;;;;;3.85;3.40;;;;;;;11.54;63.83;94759.72;5116527;27;20055;-73
2022/09/14 02:41:02;;;;;;;5.03;3.80;;;;;;;11.49;63.66;94760.09;5131921;27;20050;-73
2022/09/14 02:43:41;;;;;;;4.20;3.30;;;;;;;11.53;63.60;94761.50;5115561;27;20115;-73
2022/09/14 02:46:31;;;;;;;5.93;3.63;;;;;;;11.53;63.84;94771.91;5132946;27;20070;-73
2022/09/14 02:49:12;;;;;;;4.32;3.60;;;;;;;11.58;63.65;94780.09;5131724;27;20031;-73
2022/09/14 02:51:54;;;;;;;4.97;3.60;;;;;;;11.58;63.55;94772.31;5132231;27;20035;-73
2022/09/14 02:54:43;;;;;;;5.53;3.50;;;;;;;11.50;63.87;94769.53;5115516;27;20035;-73
2022/09/14 02:57:09;;;;;;;4.15;3.65;;;;;;;11.41;64.20;94772.97;5132666;27;20031;-73
2022/09/14 02:59:34;;;;;;;4.15;3.60;;;;;;;11.41;64.20;94772.97;5131586;27;20031;-73
2022/09/14 03:02:00;;;;;;;4.32;3.85;;;;;;;11.44;64.15;94782.28;5132575;27;20023;-73
2022/09/14 03:04:26;;;;;;;4.15;3.75;;;;;;;11.42;64.21;94766.78;5131479;27;20037;-73
2022/09/14 03:06:51;;;;;;;4.72;3.50;;;;;;;11.49;64.29;94767.91;5132513;27;20065;-73
2022/09/14 03:09:17;;;;;;;4.03;3.63;;;;;;;11.59;63.99;94773.16;5114301;27;20049;-73
2022/09/14 03:11:42;;;;;;;5.45;3.53;;;;;;;11.55;64.00;94766.56;5096951;27;20450;-73
2022/09/14 03:14:09;;;;;;;4.57;3.88;;;;;;;11.50;64.36;94774.75;5113902;27;20107;-73
2022/09/14 03:16:36;;;;;;;4.20;3.63;;;;;;;11.52;64.47;94785.03;5113707;27;20046;-73
2022/09/14 03:19:01;;;;;;;5.38;3.80;;;;;;;11.58;63.73;94780.09;5131181;27;20472;-73
2022/09/14 03:21:27;;;;;;;5.22;3.70;;;;;;;11.22;64.55;94778.09;5113974;27;20034;-73
2022/09/14 03:23:56;;;;;;;5.05;4.45;;;;;;;10.92;65.98;94775.41;5097057;27;20071;-73
2022/09/14 03:26:23;;;;;;;5.65;4.22;;;;;;;10.94;66.40;94790.84;5130941;27;20050;-73
2022/09/14 03:28:52;;;;;;;4.60;4.20;;;;;;;10.90;66.25;94781.69;5113759;27;20038;-73
2022/09/14 03:31:17;;;;;;;8.57;4.20;;;;;;;10.89;66.26;94780.00;5113742;28;20421;-73
2022/09/14 03:33:43;;;;;;;4.88;3.60;;;;;;;10.76;66.44;94787.22;5130880;27;20101;-73
2022/09/14 03:36:18;;;;;;;4.72;3.80;;;;;;;10.76;66.58;94779.41;5113664;27;20027;-73
2022/09/14 03:38:47;;;;;;;4.60;4.05;;;;;;;10.70;66.97;94789.38;5113836;27;20118;-73
2022/09/14 03:41:13;;;;;;;4.20;3.78;;;;;;;10.66;67.10;94790.56;5113552;28;20453;-73
2022/09/14 03:43:38;;;;;;;6.40;3.78;;;;;;;10.74;66.83;94780.34;5113511;28;20048;-73
2022/09/14 03:46:08;;;;;;;4.50;3.75;;;;;;;10.67;66.77;94766.25;5130750;27;20030;-73
2022/09/14 03:48:33;;;;;;;5.53;3.88;;;;;;;10.67;67.08;94765.41;5113727;27;20454;-73
2022/09/14 03:51:00;;;;;;;4.68;4.10;;;;;;;10.50;67.44;94769.41;5131937;27;20023;-73
2022/09/14 03:53:25;;;;;;;4.28;3.88;;;;;;;10.62;67.53;94773.59;5130467;27;20389;-72
2022/09/14 03:55:51;;;;;;;4.15;3.75;;;;;;;10.65;67.57;94773.34;5130654;27;20108;-73
2022/09/14 03:58:16;;;;;;;4.32;3.90;;;;;;;10.84;66.60;94782.19;5113516;28;20039;-73
2022/09/14 04:00:42;;;;;;;4.20;3.60;;;;;;;10.78;66.80;94780.09;5130628;27;20038;-73
2022/09/14 04:03:07;;;;;;;5.15;3.92;;;;;;;10.59;66.90;94770.44;5115759;27;20465;-73
2022/09/14 04:05:33;;;;;;;4.78;4.10;;;;;;;10.64;66.92;94786.44;5134833;27;20050;-73
2022/09/14 04:07:58;;;;;;;5.38;4.05;;;;;;;10.60;66.99;94783.28;5117678;27;20031;-72
2022/09/14 04:10:24;;;;;;;4.97;4.07;;;;;;;10.59;67.18;94778.22;5134758;27;20134;-72
2022/09/14 04:12:49;;;;;;;5.22;4.65;;;;;;;10.57;67.17;94791.34;5117359;27;20062;-73
2022/09/14 04:15:15;;;;;;;5.03;4.47;;;;;;;10.49;66.92;94784.19;5134693;27;20023;-73
2022/09/14 04:17:40;;;;;;;5.57;3.78;;;;;;;10.51;67.67;94797.03;5100369;27;20070;-73
2022/09/14 04:20:06;;;;;;;4.18;3.78;;;;;;;10.49;67.43;94791.16;5134634;27;20061;-72
2022/09/14 04:22:32;;;;;;;4.20;3.80;;;;;;;10.49;67.62;94788.56;5117316;27;20027;-73
2022/09/14 04:24:57;;;;;;;4.00;3.60;;;;;;;10.41;67.68;94781.38;5134657;27;20557;-72
2022/09/14 04:27:23;;;;;;;4.60;4.03;;;;;;;10.26;68.48;94793.00;5117228;27;20034;-72
2022/09/14 04:29:49;;;;;;;4.35;3.90;;;;;;;10.36;68.35;94787.91;5136058;27;20042;-73
2022/09/14 04:32:15;;;;;;;6.57;4.20;;;;;;;10.31;68.92;94774.47;5117340;27;20148;-73
2022/09/14 04:34:40;;;;;;;4.45;3.80;;;;;;;10.27;69.21;94786.91;5117385;27;20583;-73
2022/09/14 04:37:06;;;;;;;4.68;3.80;;;;;;;10.33;69.07;94778.59;5134150;27;20058;-73
2022/09/14 04:39:31;;;;;;;5.25;4.20;;;;;;;10.31;68.87;94777.06;5117303;27;20035;-73
2022/09/14 04:41:57;;;;;;;4.60;3.90;;;;;;;10.41;69.02;94770.19;5134109;27;20095;-72
2022/09/14 04:44:22;;;;;;;7.38;4.50;;;;;;;10.50;68.81;94785.84;5134207;27;20046;-73
2022/09/14 04:46:47;;;;;;;6.55;4.00;;;;;;;10.41;69.06;94802.16;5135287;27;20027;-73
2022/09/14 04:49:17;;;;;;;6.00;4.20;;;;;;;10.55;68.55;94797.59;5099986;27;20046;-73
2022/09/14 04:51:43;;;;;;;5.18;4.30;;;;;;;10.49;68.60;94785.94;5116978;27;20030;-73
2022/09/14 04:54:08;;;;;;;4.85;4.13;;;;;;;10.45;68.95;94794.97;5102226;27;20111;-73
2022/09/14 04:56:35;;;;;;;5.22;4.32;;;;;;;10.55;68.60;94806.22;5085655;28;20069;-74
2022/09/14 04:59:03;;;;;;;4.88;3.92;;;;;;;10.54;68.95;94806.38;5112317;27;20058;-73
2022/09/14 05:01:33;;;;;;;5.78;4.18;;;;;;;10.59;68.58;94796.41;5104337;28;20028;-73
2022/09/14 05:04:02;;;;;;;5.05;4.50;;;;;;;10.49;69.39;94811.94;5100846;27;20062;-74
2022/09/14 05:06:31;;;;;;;6.65;4.22;;;;;;;10.76;69.15;94805.41;5107379;27;20126;-74
2022/09/14 05:08:58;;;;;;;5.82;4.50;;;;;;;10.91;69.11;94809.31;5111836;27;20105;-74
2022/09/14 05:11:24;;;;;;;6.18;4.22;;;;;;;11.24;68.29;94821.22;5109732;27;20038;-74
2022/09/14 05:13:50;;;;;;;5.57;4.90;;;;;;;11.88;65.53;94807.03;5120317;27;20387;-73
2022/09/14 05:16:24;;;;;;;4.93;4.43;;;;;;;12.28;64.31;94816.50;5107804;27;20023;-73
2022/09/14 05:18:49;;;;;;;7.68;5.10;;;;;;;12.91;61.93;94819.47;5105864;27;20051;-72
2022/09/14 05:21:17;;;;;;;7.28;4.78;;;;;;;13.20;61.28;94826.38;5101579;27;20525;-73
2022/09/14 05:23:42;;;;;;;5.25;4.60;;;;;;;13.41;60.73;94820.97;5106271;27;20043;-72
2022/09/14 05:26:08;;;;;;;5.78;4.53;;;;;;;13.89;58.52;94819.09;5123222;27;20042;-73
2022/09/14 05:28:33;;;;;;;4.82;4.10;;;;;;;13.70;59.37;94828.66;5115528;27;20035;-73
2022/09/14 05:31:02;;;;;;;7.35;4.82;;;;;;;13.96;57.72;94822.75;5110915;27;20448;-72
2022/09/14 05:33:27;;;;;;;4.90;4.28;;;;;;;13.97;58.75;94822.59;5111707;27;20031;-74
2022/09/14 05:35:58;;;;;;;6.35;4.70;;;;;;;14.03;57.78;94808.94;5081646;28;20071;-74
2022/09/14 05:38:23;;;;;;;7.90;4.55;;;;;;;14.39;57.33;94842.09;5095178;27;20024;-73
2022/09/14 05:40:53;;;;;;;8.23;5.05;;;;;;;14.50;56.33;94836.66;5101538;28;20413;-73
2022/09/14 05:43:19;;;;;;;5.70;4.85;;;;;;;14.47;56.66;94839.56;5130153;27;20409;-74
2022/09/14 05:45:44;;;;;;;8.90;5.00;;;;;;;14.36;56.50;94842.41;5122545;27;20229;-74
2022/09/14 05:48:10;;;;;;;8.23;5.03;;;;;;;14.30;57.43;94844.63;5121613;27;20043;-73
2022/09/14 05:50:35;;;;;;;7.93;4.68;;;;;;;14.39;57.66;94832.47;5105127;27;20037;-74
2022/09/14 05:53:01;;;;;;;7.63;4.75;;;;;;;14.54;57.43;94845.84;5109279;28;20032;-72
2022/09/14 05:55:26;;;;;;;7.68;5.10;;;;;;;14.67;57.23;94843.69;5123995;27;20054;-73
2022/09/14 05:57:52;;;;;;;9.20;5.10;;;;;;;14.70;57.44;94840.75;5118038;27;20031;-73
2022/09/14 06:00:17;;;;;;;8.85;5.07;;;;;;;14.95;56.86;94844.38;5112935;27;20081;-72
2022/09/14 06:02:50;;;;;;;6.40;5.20;;;;;;;15.11;56.15;94842.84;5119452;27;20456;-73
2022/09/14 06:05:15;;;;;;;6.97;4.20;;;;;;;15.20;56.48;94834.88;5117245;27;20061;-73
2022/09/14 06:07:41;;;;;;;8.23;5.03;;;;;;;15.36;54.76;94841.19;5082334;28;20035;-72
2022/09/14 06:10:07;;;;;;;13.95;5.18;;;;;;;15.33;54.58;94841.53;5107613;27;20035;-72
2022/09/14 06:12:32;;;;;;;7.30;4.90;;;;;;;15.33;54.44;94847.56;5110141;28;20023;-73
2022/09/14 06:14:58;;;;;;;5.95;4.65;;;;;;;15.40;55.05;94853.00;5096403;27;20497;-72
2022/09/14 06:17:23;;;;;;;10.48;5.22;;;;;;;15.45;54.60;94847.31;5112865;27;20506;-73
2022/09/14 06:19:49;;;;;;;6.95;4.53;;;;;;;15.54;54.35;94844.56;5114547;27;20040;-73
2022/09/14 06:22:14;;;;;;;5.03;4.28;;;;;;;15.67;55.42;94833.66;5097547;27;20025;-73
2022/09/14 06:24:40;;;;;;;6.82;5.15;;;;;;;15.81;55.26;94835.69;5107411;28;20028;-73
2022/09/14 06:27:07;;;;;;;6.03;4.03;;;;;;;16.05;54.56;94848.06;5111371;28;20034;-73
2022/09/14 06:29:33;;;;;;;5.70;3.85;;;;;;;16.32;51.47;94838.28;5124468;27;20023;-73
2022/09/14 06:31:59;;;;;;;5.68;3.42;;;;;;;16.53;53.69;94837.81;5114583;27;20111;-72
2022/09/14 06:34:25;;;;;;;4.07;3.42;;;;;;;16.67;51.71;94831.13;5112469;27;20046;-72
2022/09/14 06:36:50;;;;;;;3.70;3.40;;;;;;;16.84;50.39;94831.97;5110727;27;20106;-73
2022/09/14 06:39:16;;;;;;;5.28;3.47;;;;;;;17.03;50.48;94825.56;5092496;28;20035;-72
2022/09/14 06:41:41;;;;;;;5.75;3.47;;;;;;;17.27;50.23;94822.03;5109519;27;20019;-73
2022/09/14 06:44:07;;;;;;;3.97;3.20;;;;;;;17.35;48.33;94819.41;5121184;27;20080;-73
2022/09/14 06:46:33;;;;;;;3.83;3.42;;;;;;;17.27;47.97;94828.09;5132621;27;20095;-73
2022/09/14 06:49:03;;;;;;;9.63;4.00;;;;;;;17.46;47.72;94832.16;5108861;27;20104;-72
2022/09/14 06:51:31;;;;;;;4.80;3.58;;;;;;;17.31;47.86;94829.44;5114649;27;20031;-72
2022/09/14 06:54:00;;;;;;;6.18;3.85;;;;;;;17.31;47.96;94818.94;5095118;27;20028;-74
2022/09/14 06:56:26;;;;;;;5.55;3.63;;;;;;;17.66;47.33;94832.59;5118097;27;20036;-73
2022/09/14 06:58:52;;;;;;;4.72;3.67;;;;;;;17.74;47.39;94815.97;5093960;28;20040;-73
2022/09/14 07:01:21;;;;;;;5.53;3.65;;;;;;;17.86;47.26;94828.63;5110758;28;20032;-73
2022/09/14 07:03:46;;;;;;;4.53;3.92;;;;;;;18.08;46.65;94829.66;5094331;28;20035;-73
2022/09/14 07:06:14;;;;;;;5.78;3.58;;;;;;;18.21;45.99;94836.97;5110770;28;20020;-73
2022/09/14 07:08:40;;;;;;;6.07;3.70;;;;;;;18.39;45.40;94828.81;5077026;28;20122;-73
2022/09/14 07:11:06;;;;;;;6.55;3.40;;;;;;;18.46;45.18;94828.91;5093779;28;20028;-73
2022/09/14 07:13:31;;;;;;;9.88;3.78;;;;;;;18.31;45.92;94828.88;5110483;28;20044;-73
2022/09/14 07:15:57;;;;;;;6.10;3.83;;;;;;;18.30;46.24;94809.66;5110693;28;20026;-73
2022/09/14 07:18:27;;;;;;;6.20;3.50;;;;;;;18.46;45.28;94835.00;5093575;28;20521;-73
2022/09/14 07:20:53;;;;;;;4.00;3.58;;;;;;;18.67;44.94;94830.91;5110775;28;20030;-73
2022/09/14 07:23:19;;;;;;;5.35;3.47;;;;;;;18.72;44.20;94824.13;5110495;28;20502;-73
2022/09/14 07:25:46;;;;;;;7.30;3.55;;;;;;;18.70;44.73;94815.59;5110583;28;20074;-73
2022/09/14 07:28:11;;;;;;;6.32;3.70;;;;;;;18.61;44.99;94815.81;5110333;28;20476;-73
2022/09/14 07:30:37;;;;;;;4.70;3.47;;;;;;;18.73;45.04;94825.75;5110464;28;20032;-73
2022/09/14 07:33:03;;;;;;;6.82;3.53;;;;;;;18.72;45.01;94813.63;5076388;28;20170;-73
2022/09/14 07:35:30;;;;;;;4.10;3.58;;;;;;;18.60;45.05;94820.25;5093468;28;20036;-73
2022/09/14 07:37:56;;;;;;;4.68;3.60;;;;;;;18.57;45.63;94814.56;5093448;28;20054;-73
2022/09/14 07:40:22;;;;;;;6.00;3.47;;;;;;;18.60;45.61;94807.13;5110102;28;20035;-73
2022/09/14 07:42:52;;;;;;;5.88;3.40;;;;;;;18.62;45.86;94805.13;5111437;28;20024;-73
2022/09/14 07:45:17;;;;;;;7.38;3.70;;;;;;;18.64;45.45;94805.78;5093247;28;20044;-73
2022/09/14 07:47:43;;;;;;;6.15;3.70;;;;;;;18.89;45.69;94802.97;5110065;28;20027;-73
2022/09/14 07:50:08;;;;;;;4.00;3.60;;;;;;;19.06;43.85;94808.91;5111237;28;20024;-73
2022/09/14 07:52:34;;;;;;;5.75;3.88;;;;;;;19.11;44.67;94802.13;5093366;28;20020;-73
2022/09/14 07:54:59;;;;;;;4.72;3.45;;;;;;;19.23;44.44;94809.56;5076178;28;20031;-73
2022/09/14 07:57:25;;;;;;;4.85;3.60;;;;;;;19.45;44.54;94805.22;5109997;28;20028;-73
2022/09/14 07:59:50;;;;;;;6.68;3.45;;;;;;;19.53;43.85;94803.31;5093192;28;20035;-73
2022/09/14 08:02:15;;;;;;;4.50;3.58;;;;;;;19.52;43.87;94799.03;5092863;28;20040;-73
2022/09/14 08:04:42;;;;;;;7.75;3.45;;;;;;;19.77;42.70;94810.13;5093188;28;20043;-73
2022/09/14 08:07:08;;;;;;;6.40;3.45;;;;;;;19.70;43.29;94817.13;5109916;28;20023;-73
2022/09/14 08:09:33;;;;;;;3.90;3.40;;;;;;;19.77;43.53;94809.31;5110119;28;20112;-73
2022/09/14 08:11:59;;;;;;;4.22;3.30;;;;;;;19.88;43.28;94813.28;5109782;28;20039;-73
2022/09/14 08:14:24;;;;;;;3.97;3.30;;;;;;;19.83;43.15;94800.66;5076527;28;20031;-73
2022/09/14 08:16:50;;;;;;;3.30;3.00;;;;;;;19.99;43.26;94812.81;5076113;28;20055;-73
2022/09/14 08:19:17;;;;;;;4.53;3.22;;;;;;;20.14;41.36;94805.69;5093082;28;20040;-73
2022/09/14 08:21:42;;;;;;;5.60;3.13;;;;;;;20.15;41.66;94798.63;5111027;28;20106;-73
2022/09/14 08:24:11;;;;;;;5.28;3.15;;;;;;;20.13;42.03;94804.06;5076195;28;20034;-73
2022/09/14 08:26:36;;;;;;;5.57;3.50;;;;;;;20.27;42.09;94799.75;5109769;28;20420;-73
2022/09/14 08:29:03;;;;;;;4.03;3.20;;;;;;;20.20;42.21;94778.59;5124191;28;20019;-73
2022/09/14 08:31:29;;;;;;;5.00;3.03;;;;;;;20.45;41.76;94784.31;5113253;28;20038;-73
2022/09/14 08:33:56;;;;;;;4.90;3.42;;;;;;;20.56;41.98;94779.56;5130063;28;20396;-73
2022/09/14 08:36:22;;;;;;;7.70;3.55;;;;;;;20.70;41.37;94781.31;5130156;28;20028;-73
2022/09/14 08:38:48;;;;;;;5.60;3.28;;;;;;;20.70;41.26;94794.53;5113230;28;20031;-74
2022/09/14 08:41:32;;;;;;;6.07;3.17;;;;;;;20.65;41.65;94789.00;5113088;28;20035;-73
2022/09/14 08:44:32;;;;;;;3.35;2.90;;;;;;;20.71;41.69;94788.22;5131705;27;20045;-73
2022/09/14 08:47:24;;;;;;;5.47;3.55;;;;;;;20.89;41.24;94788.56;5097512;28;20043;-73
2022/09/14 08:49:55;;;;;;;4.28;3.72;;;;;;;21.07;40.46;94796.03;5133641;27;20031;-73
2022/09/14 08:52:23;;;;;;;6.20;3.47;;;;;;;21.10;41.15;94794.81;5133902;27;20168;-73
2022/09/14 08:54:50;;;;;;;5.07;3.35;;;;;;;21.18;40.54;94792.03;5134161;27;20027;-73
2022/09/14 08:57:17;;;;;;;3.40;3.00;;;;;;;21.17;40.29;94769.25;5133775;27;20068;-73
2022/09/14 09:00:04;;;;;;;4.65;3.50;;;;;;;21.34;39.40;94786.47;5117006;27;20027;-73
2022/09/14 09:02:59;;;;;;;4.38;2.92;;;;;;;21.29;39.78;94778.28;5116659;27;20196;-73
2022/09/14 09:05:43;;;;;;;4.95;3.10;;;;;;;21.46;38.78;94780.66;5133716;27;20531;-73
2022/09/14 09:08:26;;;;;;;7.47;3.08;;;;;;;21.41;39.78;94773.31;5134829;27;20424;-74
2022/09/14 09:10:53;;;;;;;3.97;3.20;;;;;;;21.39;39.62;94770.03;5133519;27;20134;-73
2022/09/14 09:13:20;;;;;;;3.70;3.10;;;;;;;21.48;39.80;94776.81;5133454;27;20027;-73
2022/09/14 09:15:50;;;;;;;5.40;3.15;;;;;;;21.55;39.64;94775.00;5133533;27;20412;-73
2022/09/14 09:18:23;;;;;;;7.18;3.40;;;;;;;21.61;39.97;94768.13;5099203;27;20050;-73
2022/09/14 09:21:13;;;;;;;5.63;3.30;;;;;;;21.63;40.42;94768.75;5116608;27;20042;-73
2022/09/14 09:23:38;;;;;;;6.55;3.85;;;;;;;21.65;40.24;94766.75;5133065;27;20067;-73
2022/09/14 09:26:06;;;;;;;8.23;3.63;;;;;;;21.77;40.07;94759.88;5116256;27;20043;-73
2022/09/14 09:28:32;;;;;;;4.65;3.13;;;;;;;21.85;39.61;94758.88;5133251;27;20057;-73
2022/09/14 09:31:03;;;;;;;4.10;2.90;;;;;;;21.92;39.25;94759.69;5116242;27;20046;-74
2022/09/14 09:33:29;;;;;;;9.13;3.05;;;;;;;22.02;38.24;94754.06;5134162;27;20072;-73
2022/09/14 09:35:54;;;;;;;8.13;3.20;;;;;;;22.05;38.49;94757.09;5116319;27;20480;-73
2022/09/14 09:38:23;;;;;;;5.47;3.20;;;;;;;22.23;37.81;94761.03;5133039;27;20053;-73
2022/09/14 09:40:59;;;;;;;4.25;3.20;;;;;;;22.18;38.77;94753.72;5116278;27;20023;-73
2022/09/14 09:43:24;;;;;;;6.75;3.45;;;;;;;22.23;38.01;94764.53;5132960;27;20031;-73
2022/09/14 09:45:59;;;;;;;6.35;2.90;;;;;;;22.28;38.84;94753.31;5115910;27;20398;-73
2022/09/14 09:48:28;;;;;;;5.35;2.97;;;;;;;22.38;39.05;94752.94;5115504;27;20038;-74
2022/09/14 09:51:10;;;;;;;4.85;2.97;;;;;;;22.51;37.40;94763.53;5133070;27;20096;-73
2022/09/14 09:53:37;;;;;;;5.90;3.08;;;;;;;22.55;37.27;94759.47;5132790;27;20027;-73
2022/09/14 09:56:03;;;;;;;5.28;2.88;;;;;;;22.62;36.58;94760.31;5115834;27;20041;-74
2022/09/14 09:58:37;;;;;;;6.40;3.30;;;;;;;22.55;37.46;94758.66;5115606;27;20027;-74
2022/09/14 10:01:07;;;;;;;5.75;2.85;;;;;;;22.64;36.82;94755.59;5114383;27;20032;-73
2022/09/14 10:03:37;;;;;;;4.80;2.88;;;;;;;22.79;36.53;94744.84;5115615;27;20015;-74
2022/09/14 10:06:06;;;;;;;5.60;2.80;;;;;;;22.86;36.89;94744.81;5132577;27;20083;-74
2022/09/14 10:08:33;;;;;;;5.80;2.80;;;;;;;22.92;37.12;94738.69;5115861;27;20062;-73
2022/09/14 10:11:01;;;;;;;8.50;3.00;;;;;;;22.93;37.55;94732.41;5115570;27;20520;-74
2022/09/14 10:13:36;;;;;;;5.75;2.50;;;;;;;22.95;37.63;94731.19;5115433;27;20117;-73
2022/09/14 10:16:05;;;;;;;4.95;2.63;;;;;;;23.08;36.89;94738.31;5116649;27;20039;-73
2022/09/14 10:18:30;;;;;;;7.55;2.90;;;;;;;23.02;36.83;94723.25;5133596;27;20043;-74
2022/09/14 10:20:59;;;;;;;3.55;2.40;;;;;;;23.12;37.19;94728.09;5115096;27;20408;-73
2022/09/14 10:23:26;;;;;;;5.38;2.85;;;;;;;23.16;36.37;94722.19;5132078;27;20030;-74
2022/09/14 10:25:53;;;;;;;4.80;2.75;;;;;;;23.27;35.68;94718.09;5115525;27;20045;-73
2022/09/14 10:28:25;;;;;;;7.00;3.50;;;;;;;23.37;35.63;94710.53;5115363;27;20053;-73
2022/09/14 10:31:22;;;;;;;5.88;2.65;;;;;;;23.35;36.27;94701.97;5132493;27;20035;-73
2022/09/14 10:33:55;;;;;;;6.22;3.03;;;;;;;23.29;36.48;94691.38;5130133;27;20047;-73
2022/09/14 10:36:50;;;;;;;7.65;3.58;;;;;;;23.44;36.42;94699.91;5132164;27;20027;-73
2022/09/14 10:39:18;;;;;;;10.13;2.97;;;;;;;23.43;36.36;94700.94;5116353;27;20078;-74
2022/09/14 10:42:13;;;;;;;6.35;3.00;;;;;;;23.54;36.40;94704.75;5132081;27;20047;-73
2022/09/14 10:44:39;;;;;;;6.97;2.80;;;;;;;23.67;36.33;94701.25;5132033;27;20413;-73
2022/09/14 10:47:26;;;;;;;6.32;2.83;;;;;;;23.81;33.76;94702.84;5131626;27;20027;-73
2022/09/14 10:49:57;;;;;;;5.53;2.38;;;;;;;23.80;34.54;94693.28;5133284;27;20469;-73
2022/09/14 10:52:25;;;;;;;3.50;2.38;;;;;;;23.84;34.64;94695.25;5132678;27;20485;-74
2022/09/14 10:55:01;;;;;;;3.42;2.20;;;;;;;23.84;34.23;94695.25;5131775;27;20031;-74
2022/09/14 10:57:33;;;;;;;4.85;2.42;;;;;;;23.91;33.91;94694.44;5131590;27;20156;-73
2022/09/14 11:00:13;;;;;;;6.35;3.00;;;;;;;23.98;33.55;94688.06;5114493;27;20023;-73
2022/09/14 11:03:40;;;;;;;4.75;2.40;;;;;;;24.07;32.52;94681.50;5114571;27;20489;-74
2022/09/14 11:06:25;;;;;;;5.90;2.72;;;;;;;24.10;33.69;94685.56;5061298;28;20571;-73
2022/09/14 11:09:15;;;;;;;4.18;2.60;;;;;;;24.03;31.43;94672.31;5072687;28;20070;-73
2022/09/14 11:11:53;;;;;;;4.68;2.30;;;;;;;24.00;31.77;94682.53;5096077;27;20039;-73
2022/09/14 11:14:21;;;;;;;4.38;2.42;;;;;;;24.10;31.62;94682.91;5131379;27;20046;-73
2022/09/14 11:17:11;;;;;;;3.20;2.25;;;;;;;24.14;31.04;94683.28;5132113;27;20095;-73
2022/09/14 11:20:03;;;;;;;7.22;2.30;;;;;;;24.16;31.95;94687.34;5131326;27;20102;-73
2022/09/14 11:23:22;;;;;;;7.30;2.25;;;;;;;24.30;32.06;94688.06;5107473;27;20409;-73
2022/09/14 11:25:55;;;;;;;5.78;2.05;;;;;;;24.37;31.69;94694.13;5069454;27;20147;-73
2022/09/14 11:28:33;;;;;;;4.32;2.25;;;;;;;24.42;30.90;94675.72;5113782;27;20031;-73
2022/09/14 11:31:05;;;;;;;7.50;2.50;;;;;;;24.51;30.48;94685.06;5114591;27;20113;-73
2022/09/14 11:33:42;;;;;;;4.80;2.60;;;;;;;24.52;30.59;94681.41;5113902;27;20058;-73
2022/09/14 11:36:25;;;;;;;5.75;2.53;;;;;;;24.53;30.30;94680.34;5098098;27;20027;-74
2022/09/14 11:39:18;;;;;;;4.65;2.42;;;;;;;24.58;30.01;94670.94;5114351;27;20038;-73
2022/09/14 11:41:49;;;;;;;3.42;2.40;;;;;;;24.59;30.78;94668.06;5097753;27;20083;-73
2022/09/14 11:44:26;;;;;;;5.85;2.42;;;;;;;24.63;30.63;94660.50;5130853;27;20481;-73
2022/09/14 11:46:57;;;;;;;6.07;2.88;;;;;;;24.46;30.45;94646.91;5132263;27;20520;-73